createdAt,value
2019-02-19T00:01:04.124Z,6.97
2019-02-19T00:03:37.056Z,7.23
2019-02-19T00:06:10.018Z,6.97
2019-02-19T00:08:43.165Z,6.30
2019-02-19T00:11:16.465Z,6.60
2019-02-19T00:13:49.348Z,8.77
2019-02-19T00:16:22.310Z,9.97
2019-02-19T00:18:55.055Z,9.33
2019-02-19T00:21:27.890Z,9.30
2019-02-19T00:24:00.968Z,7.80
2019-02-19T00:26:33.989Z,6.67
2019-02-19T00:29:06.964Z,6.03
2019-02-19T00:31:39.929Z,6.43
2019-02-19T00:34:12.854Z,6.30
2019-02-19T00:36:45.633Z,5.90
2019-02-19T00:39:18.621Z,6.63
2019-02-19T00:41:51.505Z,6.47
2019-02-19T00:44:24.434Z,6.50
2019-02-19T00:46:57.321Z,5.70
2019-02-19T00:49:30.137Z,6.33
2019-02-19T00:52:03.221Z,6.80
2019-02-19T00:54:36.068Z,6.43
2019-02-19T00:57:09.049Z,5.73
2019-02-19T00:59:41.864Z,5.80
2019-02-19T01:02:14.919Z,6.03
2019-02-19T01:04:47.850Z,6.27
2019-02-19T01:07:24.304Z,6.67
2019-02-19T01:09:57.547Z,6.10
2019-02-19T01:12:30.805Z,6.10
2019-02-19T01:15:04.237Z,5.90
2019-02-19T01:17:37.189Z,6.17
2019-02-19T01:20:10.185Z,5.93
2019-02-19T01:22:43.129Z,6.03
2019-02-19T01:25:16.095Z,6.17
2019-02-19T01:27:48.995Z,5.47
2019-02-19T01:30:22.116Z,6.07
2019-02-19T01:32:55.153Z,6.70
2019-02-19T01:35:27.999Z,6.03
2019-02-19T01:38:00.979Z,6.57
2019-02-19T01:40:33.756Z,6.10
2019-02-19T01:43:06.759Z,5.77
2019-02-19T01:45:39.565Z,5.90
2019-02-19T01:48:12.625Z,6.50
2019-02-19T01:50:45.399Z,6.20
2019-02-19T01:53:18.486Z,6.40
2019-02-19T01:55:51.372Z,6.70
2019-02-19T01:58:24.372Z,6.43
2019-02-19T02:00:57.577Z,6.43
2019-02-19T02:03:30.625Z,6.87
2019-02-19T02:06:03.661Z,6.23
2019-02-19T02:08:36.717Z,7.13
2019-02-19T02:11:09.677Z,6.43
2019-02-19T02:13:42.726Z,6.60
2019-02-19T02:16:15.546Z,6.50
2019-02-19T02:18:48.390Z,6.50
2019-02-19T02:21:21.350Z,7.27
2019-02-19T02:23:54.282Z,6.73
2019-02-19T02:26:27.171Z,7.30
2019-02-19T02:29:00.176Z,7.13
2019-02-19T02:31:33.102Z,7.57
2019-02-19T02:34:06.101Z,7.67
2019-02-19T02:36:38.927Z,7.13
2019-02-19T02:39:11.946Z,7.77
2019-02-19T02:41:44.676Z,7.80
2019-02-19T02:44:17.676Z,7.77
2019-02-19T02:46:50.601Z,8.03
2019-02-19T02:49:23.554Z,7.53
2019-02-19T02:51:56.492Z,7.97
2019-02-19T02:54:29.450Z,7.67
2019-02-19T02:57:03.054Z,7.90
2019-02-19T02:59:36.151Z,7.73
2019-02-19T03:02:08.949Z,7.97
2019-02-19T03:04:42.737Z,8.40
2019-02-19T03:07:23.720Z,7.73
2019-02-19T03:09:56.795Z,8.37
2019-02-19T03:12:29.589Z,8.50
2019-02-19T03:15:02.990Z,9.30
2019-02-19T03:17:36.176Z,8.73
2019-02-19T03:20:09.037Z,9.17
2019-02-19T03:22:41.911Z,9.93
2019-02-19T03:25:14.774Z,9.90
2019-02-19T03:27:47.645Z,9.93
2019-02-19T03:30:20.487Z,9.87
2019-02-19T03:32:54.348Z,11.57
2019-02-19T03:35:27.316Z,10.63
2019-02-19T03:38:00.157Z,11.37
2019-02-19T03:40:33.224Z,12.37
2019-02-19T03:43:06.243Z,10.80
2019-02-19T03:45:39.352Z,11.90
2019-02-19T03:48:12.398Z,11.83
2019-02-19T03:50:45.282Z,12.77
2019-02-19T03:53:18.177Z,14.97
2019-02-19T03:55:51.013Z,16.07
2019-02-19T03:58:24.011Z,16.87
2019-02-19T04:00:56.884Z,17.60
2019-02-19T04:03:29.792Z,17.33
2019-02-19T04:06:02.568Z,17.00
2019-02-19T04:08:35.359Z,18.03
2019-02-19T04:11:08.277Z,18.40
2019-02-19T04:13:41.299Z,17.23
2019-02-19T04:16:21.131Z,18.30
2019-02-19T04:18:48.775Z,18.40
2019-02-19T04:21:21.722Z,18.33
2019-02-19T04:23:54.430Z,19.30
2019-02-19T04:26:27.388Z,17.93
2019-02-19T04:29:00.482Z,18.67
2019-02-19T04:31:33.593Z,19.07
2019-02-19T04:34:06.719Z,19.67
2019-02-19T04:36:39.799Z,19.63
2019-02-19T04:39:12.712Z,20.70
2019-02-19T04:41:46.040Z,21.53
2019-02-19T04:44:18.870Z,21.93
2019-02-19T04:46:51.756Z,23.60
2019-02-19T04:49:24.688Z,23.37
2019-02-19T04:51:57.523Z,25.10
2019-02-19T04:54:30.305Z,25.20
2019-02-19T04:57:03.327Z,26.83
2019-02-19T04:59:36.177Z,28.40
2019-02-19T05:02:09.250Z,29.47
2019-02-19T05:04:42.129Z,30.97
2019-02-19T05:07:15.318Z,33.90
2019-02-19T05:09:48.481Z,33.50
2019-02-19T05:12:21.602Z,33.80
2019-02-19T05:14:54.589Z,37.90
2019-02-19T05:17:27.445Z,35.17
2019-02-19T05:20:00.294Z,36.20
2019-02-19T05:22:33.199Z,36.33
2019-02-19T05:25:06.209Z,41.13
2019-02-19T05:27:39.130Z,34.80
2019-02-19T05:30:12.109Z,34.13
2019-02-19T05:32:44.840Z,41.53
2019-02-19T05:35:17.938Z,40.23
2019-02-19T05:37:50.945Z,39.60
2019-02-19T05:40:24.825Z,37.70
2019-02-19T05:42:58.059Z,39.20
2019-02-19T05:45:31.003Z,40.67
2019-02-19T05:48:05.340Z,36.47
2019-02-19T05:50:38.545Z,40.80
2019-02-19T05:53:11.400Z,38.00
2019-02-19T05:55:44.325Z,37.97
2019-02-19T05:58:17.423Z,36.13
2019-02-19T06:00:50.317Z,36.53
2019-02-19T06:03:23.194Z,35.03
2019-02-19T06:05:56.098Z,39.67
2019-02-19T06:08:29.154Z,41.03
2019-02-19T06:11:01.958Z,37.77
2019-02-19T06:13:34.695Z,42.33
2019-02-19T06:16:07.576Z,39.23
2019-02-19T06:18:40.554Z,40.50
2019-02-19T06:21:13.420Z,36.47
2019-02-19T06:23:46.256Z,39.87
2019-02-19T06:26:19.127Z,37.83
2019-02-19T06:28:52.250Z,40.43
2019-02-19T06:31:25.151Z,43.00
2019-02-19T06:33:57.955Z,42.67
2019-02-19T06:36:30.751Z,42.90
2019-02-19T06:39:04.660Z,40.87
2019-02-19T06:41:37.729Z,43.37
2019-02-19T06:44:10.755Z,43.93
2019-02-19T06:46:43.575Z,42.27
2019-02-19T06:49:16.456Z,42.77
2019-02-19T06:51:49.605Z,44.57
2019-02-19T06:54:22.679Z,40.10
2019-02-19T06:56:55.885Z,41.87
2019-02-19T06:59:29.269Z,43.70
2019-02-19T07:02:11.495Z,44.00
2019-02-19T07:04:48.759Z,43.73
2019-02-19T07:07:21.786Z,44.67
2019-02-19T07:09:54.875Z,46.13
2019-02-19T07:12:27.974Z,43.30
2019-02-19T07:15:01.078Z,44.53
2019-02-19T07:17:34.251Z,43.40
2019-02-19T07:20:07.476Z,42.97
2019-02-19T07:22:40.470Z,42.40
2019-02-19T07:25:13.561Z,41.20
2019-02-19T07:27:46.367Z,42.20
2019-02-19T07:30:19.255Z,41.83
2019-02-19T07:32:52.016Z,43.67
2019-02-19T07:35:24.989Z,41.13
2019-02-19T07:37:57.791Z,40.20
2019-02-19T07:40:30.702Z,38.70
2019-02-19T07:43:03.523Z,40.10
2019-02-19T07:45:36.402Z,39.10
2019-02-19T07:48:09.389Z,40.47
2019-02-19T07:50:42.490Z,37.73
2019-02-19T07:53:15.609Z,37.53
2019-02-19T07:55:48.578Z,36.73
2019-02-19T07:58:21.475Z,37.50
2019-02-19T08:00:54.690Z,36.73
2019-02-19T08:03:27.850Z,32.80
2019-02-19T08:06:00.813Z,33.23
2019-02-19T08:08:33.993Z,33.47
2019-02-19T08:11:07.366Z,30.33
2019-02-19T08:13:40.455Z,28.87
2019-02-19T08:16:13.430Z,27.83
2019-02-19T08:18:46.397Z,29.30
2019-02-19T08:21:19.415Z,26.40
2019-02-19T08:23:53.292Z,26.70
2019-02-19T08:26:26.227Z,26.23
2019-02-19T08:29:07.138Z,26.73
2019-02-19T08:31:34.376Z,25.80
2019-02-19T08:34:07.221Z,24.50
2019-02-19T08:36:40.143Z,26.77
2019-02-19T08:39:13.346Z,24.87
2019-02-19T08:41:46.620Z,22.60
2019-02-19T08:44:19.566Z,23.83
2019-02-19T08:46:52.582Z,25.97
2019-02-19T08:49:25.608Z,24.60
2019-02-19T08:51:58.686Z,22.73
2019-02-19T08:54:31.862Z,22.63
2019-02-19T08:57:04.922Z,21.50
2019-02-19T08:59:38.119Z,19.10
2019-02-19T09:02:11.248Z,19.80
2019-02-19T09:04:44.311Z,18.70
2019-02-19T09:07:17.304Z,19.33
2019-02-19T09:09:50.276Z,20.03
2019-02-19T09:12:23.108Z,21.23
2019-02-19T09:14:56.064Z,21.27
2019-02-19T09:17:29.289Z,20.97
2019-02-19T09:20:02.322Z,20.40
2019-02-19T09:22:35.575Z,19.97
2019-02-19T09:25:08.863Z,19.13
2019-02-19T09:27:43.317Z,18.47
2019-02-19T09:30:16.788Z,18.63
2019-02-19T09:32:50.111Z,19.13
2019-02-19T09:35:23.135Z,19.73
2019-02-19T09:37:56.331Z,19.00
2019-02-19T09:40:29.313Z,19.17
2019-02-19T09:43:02.331Z,17.57
2019-02-19T09:45:35.437Z,18.23
2019-02-19T09:48:08.422Z,19.17
2019-02-19T09:50:41.458Z,17.77
2019-02-19T09:53:14.710Z,18.57
2019-02-19T09:55:47.738Z,19.30
2019-02-19T09:58:20.873Z,19.47
2019-02-19T10:00:54.087Z,18.90
2019-02-19T10:03:27.195Z,18.73
2019-02-19T10:06:00.344Z,18.87
2019-02-19T10:08:34.560Z,17.53
2019-02-19T10:11:07.443Z,16.40
2019-02-19T10:13:40.712Z,14.57
2019-02-19T10:16:13.690Z,14.70
2019-02-19T10:18:46.832Z,14.87
2019-02-19T10:21:19.740Z,12.80
2019-02-19T10:23:52.703Z,13.18
2019-02-19T10:26:25.772Z,13.45
2019-02-19T10:28:58.689Z,13.75
2019-02-19T10:31:31.661Z,14.47
2019-02-19T10:34:04.726Z,15.53
2019-02-19T10:36:38.710Z,14.68
2019-02-19T10:39:12.037Z,13.18
2019-02-19T10:41:45.347Z,11.93
2019-02-19T10:44:18.208Z,11.10
2019-02-19T10:46:51.047Z,10.95
2019-02-19T10:49:24.095Z,10.75
2019-02-19T10:51:57.025Z,9.03
2019-02-19T10:54:29.875Z,8.35
2019-02-19T10:57:03.028Z,8.60
2019-02-19T10:59:36.120Z,7.20
2019-02-19T11:02:09.070Z,6.15
2019-02-19T11:04:42.105Z,4.20
2019-02-19T11:07:15.080Z,3.52
2019-02-19T11:09:48.271Z,3.70
2019-02-19T11:12:22.240Z,3.50
2019-02-19T11:14:55.325Z,4.03
2019-02-19T11:17:29.153Z,4.15
2019-02-19T11:20:02.141Z,4.78
2019-02-19T11:22:35.246Z,4.42
2019-02-19T11:25:09.907Z,3.98
2019-02-19T11:27:42.864Z,3.95
2019-02-19T11:30:16.123Z,3.75
2019-02-19T11:32:49.131Z,3.92
2019-02-19T11:35:22.086Z,4.25
2019-02-19T11:37:55.061Z,4.53
2019-02-19T11:40:27.857Z,4.70
2019-02-19T11:43:00.768Z,5.05
2019-02-19T11:45:33.799Z,4.37
2019-02-19T11:48:07.023Z,4.85
2019-02-19T11:50:40.088Z,4.87
2019-02-19T11:53:13.184Z,5.35
2019-02-19T11:55:46.098Z,4.12
2019-02-19T11:58:18.973Z,4.78
2019-02-19T12:00:51.994Z,3.70
2019-02-19T12:03:25.465Z,3.25
2019-02-19T12:05:58.726Z,3.77
2019-02-19T12:08:38.826Z,3.17
2019-02-19T12:11:06.581Z,3.50
2019-02-19T12:13:39.624Z,3.52
2019-02-19T12:16:12.628Z,3.90
2019-02-19T12:18:46.440Z,3.37
2019-02-19T12:21:19.886Z,3.30
2019-02-19T12:23:52.689Z,3.33
2019-02-19T12:26:25.920Z,3.92
2019-02-19T12:28:59.973Z,4.12
2019-02-19T12:31:32.931Z,4.03
2019-02-19T12:34:06.087Z,3.90
2019-02-19T12:36:39.069Z,4.37
2019-02-19T12:39:12.059Z,4.90
2019-02-19T12:41:45.291Z,4.62
2019-02-19T12:44:18.435Z,4.80
2019-02-19T12:46:51.530Z,4.47
2019-02-19T12:49:24.446Z,4.62
2019-02-19T12:51:57.869Z,4.72
2019-02-19T12:54:30.922Z,5.25
2019-02-19T12:57:03.915Z,5.00
2019-02-19T12:59:36.894Z,4.80
2019-02-19T13:02:11.166Z,4.35
2019-02-19T13:04:44.265Z,3.67
2019-02-19T13:07:17.503Z,3.52
2019-02-19T13:09:50.661Z,3.65
2019-02-19T13:12:23.623Z,4.28
2019-02-19T13:14:56.731Z,3.45
2019-02-19T13:17:29.828Z,3.33
2019-02-19T13:20:03.217Z,3.92
2019-02-19T13:22:36.416Z,3.65
2019-02-19T13:25:10.011Z,4.35
2019-02-19T13:27:43.231Z,4.00
2019-02-19T13:30:16.098Z,3.40
2019-02-19T13:32:49.236Z,4.03
2019-02-19T13:35:22.166Z,3.12
2019-02-19T13:37:55.299Z,3.87
2019-02-19T13:40:28.473Z,3.50
2019-02-19T13:43:01.433Z,3.85
2019-02-19T13:45:34.466Z,3.50
2019-02-19T13:48:07.456Z,3.42
2019-02-19T13:50:40.403Z,5.25
2019-02-19T13:53:18.354Z,3.02
2019-02-19T13:55:53.745Z,2.87
2019-02-19T13:58:26.695Z,3.67
2019-02-19T14:00:59.947Z,3.47
2019-02-19T14:03:32.952Z,3.33
2019-02-19T14:06:06.093Z,3.00
2019-02-19T14:08:39.222Z,3.05
2019-02-19T14:11:12.447Z,2.62
2019-02-19T14:13:57.339Z,2.50
2019-02-19T14:16:37.738Z,2.20
2019-02-19T14:19:36.120Z,2.45
2019-02-19T14:22:40.907Z,2.87
2019-02-19T14:25:42.806Z,2.95
2019-02-19T14:28:43.383Z,3.20
2019-02-19T14:31:41.856Z,3.25
2019-02-19T14:34:33.133Z,2.98
2019-02-19T14:37:24.120Z,2.67
2019-02-19T14:40:10.693Z,2.90
2019-02-19T14:43:03.387Z,3.27
2019-02-19T14:45:58.721Z,2.87
2019-02-19T14:48:52.196Z,2.50
2019-02-19T14:51:56.478Z,2.70
2019-02-19T14:54:47.949Z,2.17
2019-02-19T14:57:34.938Z,2.65
2019-02-19T15:00:19.674Z,3.02
2019-02-19T15:03:15.309Z,3.27
2019-02-19T15:05:59.403Z,2.15
2019-02-19T15:08:48.824Z,2.30
2019-02-19T15:11:39.614Z,2.75
2019-02-19T15:14:34.877Z,2.52
2019-02-19T15:17:27.323Z,2.77
2019-02-19T15:20:18.786Z,2.87
2019-02-19T15:23:14.102Z,3.20
2019-02-19T15:26:01.243Z,3.15
2019-02-19T15:28:53.648Z,2.85
2019-02-19T15:31:46.141Z,2.90
2019-02-19T15:34:57.080Z,2.83
2019-02-19T15:37:40.947Z,2.85
2019-02-19T15:40:36.528Z,3.35
2019-02-19T15:43:29.324Z,2.92
2019-02-19T15:46:20.424Z,2.67
2019-02-19T15:49:11.855Z,3.27
2019-02-19T15:52:16.517Z,3.10
2019-02-19T15:55:15.136Z,3.02
2019-02-19T15:58:07.509Z,3.45
2019-02-19T16:00:42.970Z,3.65
2019-02-19T16:03:30.768Z,3.47
2019-02-19T16:06:23.407Z,3.35
2019-02-19T16:09:06.397Z,2.87
2019-02-19T16:12:00.620Z,4.00
2019-02-19T16:14:56.151Z,3.65
2019-02-19T16:17:47.448Z,3.15
2019-02-19T16:20:42.320Z,2.60
2019-02-19T16:23:33.545Z,2.85
2019-02-19T16:26:19.168Z,2.90
2019-02-19T16:29:02.059Z,2.77
2019-02-19T16:31:54.620Z,3.37
2019-02-19T16:34:48.582Z,2.85
2019-02-19T16:37:39.858Z,2.70
2019-02-19T16:40:35.768Z,3.45
2019-02-19T16:43:37.158Z,3.27
2019-02-19T16:46:25.375Z,3.30
2019-02-19T16:49:08.248Z,3.63
2019-02-19T16:51:51.948Z,3.20
2019-02-19T16:54:38.413Z,3.00
2019-02-19T16:57:17.915Z,2.90
2019-02-19T17:00:16.284Z,3.53
2019-02-19T17:03:00.811Z,3.17
2019-02-19T17:05:56.364Z,3.30
2019-02-19T17:08:38.778Z,3.83
2019-02-19T17:11:20.985Z,3.30
2019-02-19T17:14:13.668Z,3.10
2019-02-19T17:17:15.093Z,3.30
2019-02-19T17:20:29.202Z,3.60
2019-02-19T17:23:10.629Z,5.00
2019-02-19T17:26:01.776Z,3.43
2019-02-19T17:28:43.053Z,9.87
2019-02-19T17:31:44.080Z,3.60
2019-02-19T17:34:42.349Z,3.87
2019-02-19T17:37:33.819Z,4.20
2019-02-19T17:40:25.239Z,4.90
2019-02-19T17:43:12.870Z,4.60
2019-02-19T17:46:08.974Z,5.23
2019-02-19T17:49:10.438Z,5.10
2019-02-19T17:52:05.759Z,4.37
2019-02-19T17:54:57.070Z,4.30
2019-02-19T17:57:39.649Z,4.90
2019-02-19T18:00:32.035Z,4.40
2019-02-19T18:03:17.410Z,4.33
2019-02-19T18:06:08.647Z,4.93
2019-02-19T18:08:53.004Z,4.30
2019-02-19T18:11:44.011Z,4.07
2019-02-19T18:14:42.535Z,4.93
2019-02-19T18:17:26.459Z,4.07
2019-02-19T18:19:59.468Z,4.03
2019-02-19T18:22:32.516Z,4.50
2019-02-19T18:25:05.888Z,4.13
2019-02-19T18:27:38.876Z,3.90
2019-02-19T18:30:12.064Z,3.87
2019-02-19T18:32:44.989Z,4.20
2019-02-19T18:35:18.096Z,3.90
2019-02-19T18:37:51.134Z,4.60
2019-02-19T18:40:24.029Z,5.00
2019-02-19T18:42:57.082Z,9.77
2019-02-19T18:45:30.085Z,23.80
2019-02-19T18:48:03.010Z,27.03
2019-02-19T18:50:35.980Z,20.90
2019-02-19T18:53:09.208Z,8.07
2019-02-19T18:55:42.101Z,8.77
2019-02-19T18:58:15.159Z,10.30
2019-02-19T19:00:48.389Z,10.23
2019-02-19T19:03:21.455Z,8.07
2019-02-19T19:05:54.521Z,5.27
2019-02-19T19:08:27.767Z,10.37
2019-02-19T19:11:01.006Z,10.27
2019-02-19T19:13:33.995Z,6.63
2019-02-19T19:16:07.186Z,7.60
2019-02-19T19:18:40.491Z,10.93
2019-02-19T19:21:13.332Z,12.57
2019-02-19T19:23:46.689Z,9.80
2019-02-19T19:26:19.842Z,13.50
2019-02-19T19:28:52.936Z,10.77
2019-02-19T19:31:33.187Z,7.90
2019-02-19T19:34:00.875Z,7.57
2019-02-19T19:36:33.872Z,7.27
2019-02-19T19:39:07.109Z,6.87
2019-02-19T19:41:41.911Z,7.10
2019-02-19T19:44:15.022Z,6.80
2019-02-19T19:46:48.103Z,8.33
2019-02-19T19:49:21.201Z,8.20
2019-02-19T19:51:55.886Z,8.33
2019-02-19T19:54:28.768Z,7.50
2019-02-19T19:57:01.942Z,7.67
2019-02-19T19:59:35.400Z,6.87
2019-02-19T20:02:08.893Z,7.40
2019-02-19T20:04:41.928Z,7.17
2019-02-19T20:07:15.385Z,7.90
2019-02-19T20:09:48.323Z,7.90
2019-02-19T20:12:21.172Z,7.70
2019-02-19T20:14:54.191Z,8.60
2019-02-19T20:17:27.201Z,8.80
2019-02-19T20:20:00.302Z,8.93
2019-02-19T20:22:33.258Z,8.70
2019-02-19T20:25:08.392Z,8.80
2019-02-19T20:27:41.347Z,7.77
2019-02-19T20:30:14.567Z,9.70
2019-02-19T20:32:47.612Z,10.17
2019-02-19T20:35:20.632Z,10.47
2019-02-19T20:37:54.294Z,10.87
2019-02-19T20:40:27.563Z,9.47
2019-02-19T20:43:00.794Z,8.80
2019-02-19T20:45:34.198Z,8.63
2019-02-19T20:48:07.059Z,7.60
2019-02-19T20:50:39.915Z,9.27
2019-02-19T20:53:12.947Z,8.37
2019-02-19T20:55:45.823Z,8.43
2019-02-19T20:58:18.693Z,12.87
2019-02-19T21:00:53.278Z,17.20
2019-02-19T21:03:26.396Z,17.60
2019-02-19T21:05:59.310Z,15.43
2019-02-19T21:08:33.893Z,14.40
2019-02-19T21:11:06.799Z,13.33
2019-02-19T21:13:40.167Z,10.47
2019-02-19T21:16:13.217Z,11.93
2019-02-19T21:18:46.336Z,11.37
2019-02-19T21:21:19.295Z,12.90
2019-02-19T21:23:52.564Z,10.97
2019-02-19T21:26:25.616Z,13.73
2019-02-19T21:28:58.527Z,10.27
2019-02-19T21:31:31.717Z,10.73
2019-02-19T21:34:04.468Z,8.10
2019-02-19T21:36:38.432Z,8.33
2019-02-19T21:39:12.779Z,7.27
2019-02-19T21:41:47.533Z,8.67
2019-02-19T21:44:20.662Z,8.20
2019-02-19T21:46:53.929Z,10.03
2019-02-19T21:49:26.853Z,10.20
2019-02-19T21:51:59.990Z,9.50
2019-02-19T21:54:33.318Z,10.20
2019-02-19T21:57:06.284Z,9.30
2019-02-19T21:59:39.374Z,10.50
2019-02-19T22:02:16.467Z,10.00
2019-02-19T22:04:47.332Z,10.33
2019-02-19T22:07:20.387Z,10.00
2019-02-19T22:09:53.502Z,12.40
2019-02-19T22:12:26.430Z,12.63
2019-02-19T22:14:59.402Z,12.07
2019-02-19T22:17:32.310Z,11.40
2019-02-19T22:20:08.594Z,12.10
2019-02-19T22:22:42.245Z,12.03
2019-02-19T22:25:15.166Z,13.27
2019-02-19T22:27:48.114Z,12.10
2019-02-19T22:30:22.058Z,13.17
2019-02-19T22:32:55.375Z,12.60
2019-02-19T22:35:28.523Z,11.73
2019-02-19T22:38:01.502Z,11.20
2019-02-19T22:40:34.345Z,11.17
2019-02-19T22:43:07.359Z,12.30
2019-02-19T22:45:40.429Z,11.30
2019-02-19T22:48:13.368Z,12.17
2019-02-19T22:50:46.333Z,11.70
2019-02-19T22:53:41.004Z,12.23
2019-02-19T22:56:20.854Z,11.67
2019-02-19T22:58:54.135Z,11.57
2019-02-19T23:01:39.434Z,12.27
2019-02-19T23:04:12.368Z,11.93
2019-02-19T23:06:45.342Z,12.53
2019-02-19T23:09:18.447Z,12.17
2019-02-19T23:11:51.571Z,13.03
2019-02-19T23:14:24.472Z,11.50
2019-02-19T23:16:57.453Z,11.73
2019-02-19T23:19:30.428Z,11.90
2019-02-19T23:22:03.321Z,12.00
2019-02-19T23:24:36.345Z,15.17
2019-02-19T23:27:09.471Z,13.77
2019-02-19T23:29:42.690Z,13.53
2019-02-19T23:32:15.590Z,11.97
2019-02-19T23:35:08.887Z,12.77
2019-02-19T23:37:41.939Z,11.70
2019-02-19T23:40:14.791Z,12.00
2019-02-19T23:42:47.785Z,11.90
2019-02-19T23:45:20.789Z,10.93
2019-02-19T23:47:53.820Z,11.33
2019-02-19T23:50:26.580Z,11.17
2019-02-19T23:52:59.495Z,10.57
2019-02-19T23:55:32.469Z,10.90
2019-02-19T23:58:05.334Z,10.77
